AMQ132 EPKT-LGRP
Flight info
| Callsign | AMQ132 |
|---|---|
| Flight time | N/A |
| Altitude | 35000 |
| Route | REGTO T195 RAZEC N133 KEKED DCT PERIT DCT NARKA DCT LOMOS DCT NIKTI DCT MES UN139 LURUS UL995 CODIC |
| Aircraft | A321/M-SDE3FGHIRWY/LB1 |
Departure
| Time | 2026-04-30 14:18 |
|---|---|
| Airport | Katowice Wojciech Korfanty International Airport (EPKT) |
Arrival
| Time | N/A |
|---|---|
| Airport | Rhodes International Airport "Diagoras" (LGRP) |
| Time | Latitude | Longitude | Altitude | Speed | Heading |
|---|---|---|---|---|---|
| 2026-04-30 13:50 | 50.47149 | 19.07758 | 999 ft | 0 kts | 180° |
| 2026-04-30 14:05 | 50.47161 | 19.07758 | 1002 ft | 4 kts | 180° |
| 2026-04-30 14:05 | 50.47188 | 19.07758 | 999 ft | 4 kts | 180° |
| 2026-04-30 14:05 | 50.47214 | 19.07757 | 1000 ft | 4 kts | 161° |
| 2026-04-30 14:06 | 50.47232 | 19.07736 | 998 ft | 4 kts | 103° |
| 2026-04-30 14:06 | 50.47234 | 19.07683 | 998 ft | 0 kts | 90° |
| 2026-04-30 14:09 | 50.47234 | 19.07701 | 1002 ft | 5 kts | 90° |
| 2026-04-30 14:10 | 50.47234 | 19.07750 | 1000 ft | 4 kts | 90° |
| 2026-04-30 14:10 | 50.47234 | 19.07786 | 1003 ft | 3 kts | 90° |
| 2026-04-30 14:10 | 50.47234 | 19.07811 | 1003 ft | 3 kts | 90° |
| 2026-04-30 14:10 | 50.47233 | 19.07913 | 1003 ft | 17 kts | 90° |
| 2026-04-30 14:11 | 50.47233 | 19.08119 | 1003 ft | 18 kts | 90° |
| 2026-04-30 14:11 | 50.47233 | 19.08292 | 1003 ft | 15 kts | 90° |
| 2026-04-30 14:11 | 50.47232 | 19.08448 | 1004 ft | 14 kts | 90° |
| 2026-04-30 14:11 | 50.47232 | 19.08612 | 1001 ft | 17 kts | 90° |
| 2026-04-30 14:12 | 50.47232 | 19.08816 | 1001 ft | 19 kts | 90° |
| 2026-04-30 14:12 | 50.47231 | 19.09013 | 1004 ft | 17 kts | 90° |
| 2026-04-30 14:12 | 50.47230 | 19.09193 | 1004 ft | 16 kts | 90° |
| 2026-04-30 14:12 | 50.47230 | 19.09307 | 1004 ft | 16 kts | 90° |
| 2026-04-30 14:13 | 50.47230 | 19.09571 | 1002 ft | 19 kts | 90° |
| 2026-04-30 14:13 | 50.47230 | 19.09771 | 1004 ft | 18 kts | 90° |
| 2026-04-30 14:13 | 50.47230 | 19.09952 | 1004 ft | 16 kts | 90° |
| 2026-04-30 14:13 | 50.47273 | 19.10100 | 999 ft | 15 kts | 52° |
| 2026-04-30 14:14 | 50.47332 | 19.10219 | 1002 ft | 13 kts | 52° |
| 2026-04-30 14:14 | 50.47387 | 19.10330 | 998 ft | 12 kts | 52° |
| 2026-04-30 14:14 | 50.47409 | 19.10372 | 998 ft | 0 kts | 52° |
| 2026-04-30 14:16 | 50.47418 | 19.10391 | 998 ft | 7 kts | 52° |
| 2026-04-30 14:16 | 50.47488 | 19.10447 | 999 ft | 13 kts | 3° |
| 2026-04-30 14:16 | 50.47549 | 19.10447 | 1000 ft | 13 kts | 356° |
| 2026-04-30 14:16 | 50.47594 | 19.10356 | 999 ft | 4 kts | 271° |
| 2026-04-30 14:17 | 50.47596 | 19.10096 | 1002 ft | 59 kts | 270° |
| 2026-04-30 14:17 | 50.47599 | 19.09108 | 1002 ft | 119 kts | 270° |
| 2026-04-30 14:17 | 50.47599 | 19.07543 | 1006 ft | 164 kts | 270° |
| 2026-04-30 14:18 | 50.47598 | 19.05732 | 1610 ft | 163 kts | 274° |
| 2026-04-30 14:18 | 50.47590 | 19.03962 | 2348 ft | 164 kts | 275° |
| 2026-04-30 14:18 | 50.47605 | 18.99998 | 2966 ft | 203 kts | 275° |
| 2026-04-30 14:19 | 50.47154 | 18.95210 | 3625 ft | 245 kts | 235° |
| 2026-04-30 14:19 | 50.45765 | 18.93568 | 4096 ft | 265 kts | 200° |
| 2026-04-30 14:19 | 50.43936 | 18.93054 | 4735 ft | 275 kts | 183° |
| 2026-04-30 14:20 | 50.41985 | 18.93077 | 5570 ft | 278 kts | 177° |
| 2026-04-30 14:20 | 50.40072 | 18.93267 | 6347 ft | 281 kts | 175° |
| 2026-04-30 14:20 | 50.36100 | 18.93616 | 7757 ft | 290 kts | 176° |
| 2026-04-30 14:21 | 50.34071 | 18.93702 | 8442 ft | 294 kts | 177° |
| 2026-04-30 14:21 | 50.32029 | 18.94027 | 9105 ft | 295 kts | 162° |
| 2026-04-30 14:21 | 50.28585 | 18.97265 | 10470 ft | 289 kts | 126° |
| 2026-04-30 14:22 | 50.27501 | 18.99834 | 11069 ft | 286 kts | 110° |
| 2026-04-30 14:22 | 50.25741 | 19.05889 | 11381 ft | 326 kts | 109° |
| 2026-04-30 14:22 | 50.24773 | 19.09233 | 11509 ft | 345 kts | 110° |
| 2026-04-30 14:23 | 50.22716 | 19.16247 | 12281 ft | 363 kts | 110° |
| 2026-04-30 14:23 | 50.20559 | 19.23474 | 13398 ft | 370 kts | 110° |
| 2026-04-30 14:24 | 50.18259 | 19.30766 | 14425 ft | 380 kts | 116° |
| 2026-04-30 14:24 | 50.16929 | 19.34277 | 14897 ft | 382 kts | 115° |
| 2026-04-30 14:25 | 50.14209 | 19.41467 | 15850 ft | 387 kts | 115° |
| 2026-04-30 14:25 | 50.11456 | 19.48728 | 16756 ft | 391 kts | 115° |
| 2026-04-30 14:26 | 50.08675 | 19.56013 | 17627 ft | 396 kts | 117° |
| 2026-04-30 14:26 | 50.06949 | 19.59483 | 18040 ft | 406 kts | 128° |
| 2026-04-30 14:26 | 50.02252 | 19.64554 | 18794 ft | 425 kts | 152° |
| 2026-04-30 14:27 | 49.99400 | 19.65929 | 19132 ft | 434 kts | 163° |
| 2026-04-30 14:27 | 49.96439 | 19.66911 | 19474 ft | 436 kts | 164° |
| 2026-04-30 14:27 | 49.93473 | 19.67949 | 19824 ft | 436 kts | 160° |
| 2026-04-30 14:28 | 49.88076 | 19.71845 | 20528 ft | 428 kts | 140° |
| 2026-04-30 14:28 | 49.85772 | 19.74731 | 20904 ft | 424 kts | 130° |
| 2026-04-30 14:28 | 49.83815 | 19.78115 | 21272 ft | 420 kts | 121° |
| 2026-04-30 14:28 | 49.82060 | 19.81762 | 21661 ft | 421 kts | 121° |
| 2026-04-30 14:29 | 49.78545 | 19.89031 | 22440 ft | 426 kts | 122° |
| 2026-04-30 14:29 | 49.74963 | 19.96387 | 23182 ft | 430 kts | 122° |
| 2026-04-30 14:30 | 49.69503 | 20.07548 | 24178 ft | 436 kts | 122° |
| 2026-04-30 14:31 | 49.65828 | 20.15058 | 24755 ft | 440 kts | 122° |
| 2026-04-30 14:31 | 49.62134 | 20.22589 | 25339 ft | 444 kts | 122° |
| 2026-04-30 14:31 | 49.60261 | 20.26397 | 25620 ft | 446 kts | 122° |
| 2026-04-30 14:32 | 49.56488 | 20.34054 | 26176 ft | 449 kts | 122° |
| 2026-04-30 14:32 | 49.54588 | 20.37896 | 26477 ft | 451 kts | 123° |
| 2026-04-30 14:32 | 49.52701 | 20.41700 | 26753 ft | 453 kts | 123° |
| 2026-04-30 14:33 | 49.50784 | 20.45557 | 27001 ft | 454 kts | 123° |
| 2026-04-30 14:33 | 49.46921 | 20.53326 | 27470 ft | 458 kts | 123° |
| 2026-04-30 14:33 | 49.44976 | 20.57232 | 27689 ft | 460 kts | 123° |
| 2026-04-30 14:34 | 49.43026 | 20.61141 | 27880 ft | 461 kts | 123° |
| 2026-04-30 14:34 | 49.41065 | 20.65048 | 28069 ft | 463 kts | 124° |
| 2026-04-30 14:34 | 49.38902 | 20.68668 | 28333 ft | 467 kts | 131° |
| 2026-04-30 14:34 | 49.36571 | 20.72143 | 28601 ft | 466 kts | 131° |
| 2026-04-30 14:35 | 49.31928 | 20.79088 | 29164 ft | 465 kts | 131° |
| 2026-04-30 14:35 | 49.29616 | 20.82550 | 29430 ft | 464 kts | 131° |
| 2026-04-30 14:35 | 49.27302 | 20.86012 | 29689 ft | 464 kts | 131° |
| 2026-04-30 14:36 | 49.25021 | 20.89420 | 29971 ft | 464 kts | 131° |
| 2026-04-30 14:36 | 49.22706 | 20.92872 | 30209 ft | 463 kts | 131° |
| 2026-04-30 14:36 | 49.20386 | 20.96323 | 30447 ft | 463 kts | 131° |
| 2026-04-30 14:36 | 49.18071 | 20.99755 | 30655 ft | 463 kts | 132° |
| 2026-04-30 14:37 | 49.15751 | 21.03179 | 30857 ft | 463 kts | 133° |
| 2026-04-30 14:37 | 49.13264 | 21.06244 | 31041 ft | 468 kts | 142° |
| 2026-04-30 14:37 | 49.10442 | 21.08750 | 31242 ft | 472 kts | 151° |
| 2026-04-30 14:37 | 49.07367 | 21.10593 | 31430 ft | 476 kts | 160° |
| 2026-04-30 14:38 | 49.04151 | 21.11826 | 31630 ft | 478 kts | 164° |
| 2026-04-30 14:38 | 49.00900 | 21.12995 | 31826 ft | 478 kts | 164° |
| 2026-04-30 14:38 | 48.97665 | 21.14169 | 32044 ft | 478 kts | 164° |
| 2026-04-30 14:38 | 48.94427 | 21.15352 | 32231 ft | 478 kts | 164° |
| 2026-04-30 14:39 | 48.91189 | 21.16537 | 32431 ft | 478 kts | 164° |
| 2026-04-30 14:39 | 48.87942 | 21.17722 | 32620 ft | 478 kts | 164° |
| 2026-04-30 14:39 | 48.84736 | 21.18885 | 32812 ft | 478 kts | 164° |
| 2026-04-30 14:40 | 48.78249 | 21.21242 | 33198 ft | 479 kts | 164° |
| 2026-04-30 14:40 | 48.75006 | 21.22417 | 33403 ft | 478 kts | 164° |
| 2026-04-30 14:40 | 48.71802 | 21.23575 | 33586 ft | 478 kts | 164° |
| 2026-04-30 14:40 | 48.68563 | 21.24743 | 33778 ft | 478 kts | 165° |
| 2026-04-30 14:41 | 48.65291 | 21.25818 | 33956 ft | 479 kts | 167° |
| 2026-04-30 14:41 | 48.62016 | 21.26749 | 34169 ft | 478 kts | 168° |
| 2026-04-30 14:41 | 48.58736 | 21.27585 | 34369 ft | 478 kts | 169° |
| 2026-04-30 14:41 | 48.55446 | 21.28386 | 34512 ft | 478 kts | 169° |
| 2026-04-30 14:42 | 48.52208 | 21.29247 | 34636 ft | 477 kts | 165° |
| 2026-04-30 14:42 | 48.49004 | 21.30596 | 34766 ft | 476 kts | 161° |
| 2026-04-30 14:42 | 48.45824 | 21.32038 | 34909 ft | 476 kts | 161° |
| 2026-04-30 14:42 | 48.42648 | 21.33502 | 35031 ft | 477 kts | 161° |
| 2026-04-30 14:43 | 48.39482 | 21.34972 | 35157 ft | 477 kts | 161° |
| 2026-04-30 14:43 | 48.36351 | 21.36424 | 35300 ft | 476 kts | 161° |
| 2026-04-30 14:43 | 48.30010 | 21.39324 | 35337 ft | 475 kts | 161° |
| 2026-04-30 14:44 | 48.23665 | 21.42192 | 35332 ft | 475 kts | 161° |
| 2026-04-30 14:44 | 48.17360 | 21.45021 | 35326 ft | 475 kts | 162° |
| 2026-04-30 14:45 | 48.11021 | 21.47871 | 35322 ft | 475 kts | 162° |
| 2026-04-30 14:45 | 48.04690 | 21.50719 | 35324 ft | 475 kts | 162° |
| 2026-04-30 14:46 | 47.98354 | 21.53573 | 35320 ft | 475 kts | 162° |
| 2026-04-30 14:46 | 47.92012 | 21.56407 | 35328 ft | 475 kts | 162° |
| 2026-04-30 14:47 | 47.85707 | 21.59216 | 35321 ft | 475 kts | 162° |
| 2026-04-30 14:47 | 47.79373 | 21.62039 | 35318 ft | 475 kts | 162° |
| 2026-04-30 14:48 | 47.73028 | 21.64858 | 35315 ft | 475 kts | 162° |
| 2026-04-30 14:48 | 47.66726 | 21.67643 | 35311 ft | 475 kts | 162° |
| 2026-04-30 14:49 | 47.60389 | 21.70438 | 35296 ft | 475 kts | 162° |
| 2026-04-30 14:49 | 47.54044 | 21.73217 | 35302 ft | 475 kts | 162° |
| 2026-04-30 14:50 | 47.44540 | 21.77398 | 35321 ft | 475 kts | 162° |
| 2026-04-30 14:51 | 47.35048 | 21.81552 | 35303 ft | 475 kts | 163° |
| 2026-04-30 14:52 | 47.25520 | 21.85689 | 35290 ft | 475 kts | 163° |
| 2026-04-30 14:52 | 47.16026 | 21.89803 | 35277 ft | 475 kts | 163° |
| 2026-04-30 14:53 | 47.06498 | 21.93909 | 35284 ft | 476 kts | 163° |
| 2026-04-30 14:54 | 46.93809 | 21.99351 | 35280 ft | 476 kts | 163° |
| 2026-04-30 14:55 | 46.84257 | 22.03435 | 35267 ft | 477 kts | 163° |
| 2026-04-30 14:56 | 46.71546 | 22.08864 | 35270 ft | 477 kts | 163° |
| 2026-04-30 14:57 | 46.61996 | 22.12917 | 35261 ft | 478 kts | 163° |
| 2026-04-30 14:58 | 46.49213 | 22.18314 | 35259 ft | 478 kts | 163° |
| 2026-04-30 14:58 | 46.39667 | 22.22332 | 35266 ft | 478 kts | 164° |
| 2026-04-30 15:00 | 46.23669 | 22.29024 | 35261 ft | 478 kts | 164° |
| 2026-04-30 15:01 | 46.10906 | 22.34340 | 35255 ft | 478 kts | 164° |
| 2026-04-30 15:01 | 46.01340 | 22.38307 | 35266 ft | 478 kts | 165° |
| 2026-04-30 15:02 | 45.94945 | 22.40947 | 35257 ft | 478 kts | 165° |
| 2026-04-30 15:03 | 45.78977 | 22.47517 | 35259 ft | 478 kts | 165° |
| 2026-04-30 15:04 | 45.63015 | 22.54056 | 35267 ft | 478 kts | 166° |
| 2026-04-30 15:06 | 45.47040 | 22.60541 | 35255 ft | 477 kts | 166° |
| 2026-04-30 15:07 | 45.34266 | 22.65721 | 35277 ft | 477 kts | 166° |
| 2026-04-30 15:08 | 45.21546 | 22.70831 | 35293 ft | 475 kts | 167° |
| 2026-04-30 15:09 | 45.06735 | 22.76766 | 35285 ft | 474 kts | 167° |
| 2026-04-30 15:10 | 44.94072 | 22.81826 | 35303 ft | 473 kts | 168° |
| 2026-04-30 15:11 | 44.75040 | 22.89365 | 35294 ft | 473 kts | 168° |
| 2026-04-30 15:13 | 44.59203 | 22.95596 | 35290 ft | 474 kts | 168° |
| 2026-04-30 15:14 | 44.37016 | 23.04280 | 35304 ft | 473 kts | 169° |
| 2026-04-30 15:17 | 44.08633 | 23.15280 | 35296 ft | 469 kts | 169° |
| 2026-04-30 15:19 | 43.83553 | 23.24914 | 35299 ft | 466 kts | 170° |